sensor_id;sensor_type;location;lat;lon;timestamp;P1;durP1;ratioP1;P2;durP2;ratioP2
60243;SDS011;46106;51.468;5.814;2023-04-03T00:01:34;5.13;;;3.53;;
60243;SDS011;46106;51.468;5.814;2023-04-03T00:04:00;6.25;;;3.50;;
60243;SDS011;46106;51.468;5.814;2023-04-03T00:06:26;6.57;;;4.03;;
60243;SDS011;46106;51.468;5.814;2023-04-03T00:08:52;9.77;;;4.38;;
60243;SDS011;46106;51.468;5.814;2023-04-03T00:11:18;8.85;;;4.53;;
60243;SDS011;46106;51.468;5.814;2023-04-03T00:13:44;11.10;;;4.32;;
60243;SDS011;46106;51.468;5.814;2023-04-03T00:16:11;7.45;;;4.22;;
60243;SDS011;46106;51.468;5.814;2023-04-03T00:18:37;7.57;;;4.55;;
60243;SDS011;46106;51.468;5.814;2023-04-03T00:21:04;9.73;;;4.20;;
60243;SDS011;46106;51.468;5.814;2023-04-03T00:23:30;7.40;;;4.63;;
60243;SDS011;46106;51.468;5.814;2023-04-03T00:25:57;8.70;;;4.82;;
60243;SDS011;46106;51.468;5.814;2023-04-03T00:28:22;9.73;;;4.75;;
60243;SDS011;46106;51.468;5.814;2023-04-03T00:30:48;8.73;;;4.97;;
60243;SDS011;46106;51.468;5.814;2023-04-03T00:33:15;5.85;;;4.38;;
60243;SDS011;46106;51.468;5.814;2023-04-03T00:35:41;7.63;;;4.82;;
60243;SDS011;46106;51.468;5.814;2023-04-03T00:38:06;8.68;;;4.90;;
60243;SDS011;46106;51.468;5.814;2023-04-03T00:40:37;4.93;;;4.00;;
60243;SDS011;46106;51.468;5.814;2023-04-03T00:43:13;7.28;;;4.80;;
60243;SDS011;46106;51.468;5.814;2023-04-03T00:45:45;8.13;;;4.32;;
60243;SDS011;46106;51.468;5.814;2023-04-03T00:48:13;8.07;;;4.93;;
60243;SDS011;46106;51.468;5.814;2023-04-03T00:50:43;9.30;;;5.10;;
60243;SDS011;46106;51.468;5.814;2023-04-03T00:53:15;8.50;;;5.45;;
60243;SDS011;46106;51.468;5.814;2023-04-03T00:55:43;11.60;;;5.82;;
60243;SDS011;46106;51.468;5.814;2023-04-03T00:58:11;8.73;;;5.63;;
60243;SDS011;46106;51.468;5.814;2023-04-03T01:00:38;6.75;;;4.55;;
60243;SDS011;46106;51.468;5.814;2023-04-03T01:03:07;7.55;;;4.40;;
60243;SDS011;46106;51.468;5.814;2023-04-03T01:05:33;11.60;;;4.45;;
60243;SDS011;46106;51.468;5.814;2023-04-03T01:07:58;6.72;;;4.90;;
60243;SDS011;46106;51.468;5.814;2023-04-03T01:10:24;8.32;;;4.68;;
60243;SDS011;46106;51.468;5.814;2023-04-03T01:12:51;6.90;;;4.18;;
60243;SDS011;46106;51.468;5.814;2023-04-03T01:15:18;7.25;;;4.38;;
60243;SDS011;46106;51.468;5.814;2023-04-03T01:17:47;8.45;;;4.47;;
60243;SDS011;46106;51.468;5.814;2023-04-03T01:22:56;6.65;;;4.63;;
60243;SDS011;46106;51.468;5.814;2023-04-03T01:25:49;6.57;;;5.03;;
60243;SDS011;46106;51.468;5.814;2023-04-03T01:28:19;6.18;;;4.47;;
60243;SDS011;46106;51.468;5.814;2023-04-03T01:30:52;7.45;;;4.78;;
60243;SDS011;46106;51.468;5.814;2023-04-03T01:33:25;8.55;;;5.25;;
60243;SDS011;46106;51.468;5.814;2023-04-03T01:35:51;8.80;;;5.30;;
60243;SDS011;46106;51.468;5.814;2023-04-03T01:38:16;10.93;;;5.38;;
60243;SDS011;46106;51.468;5.814;2023-04-03T01:40:42;12.77;;;5.65;;
60243;SDS011;46106;51.468;5.814;2023-04-03T01:43:07;7.82;;;5.40;;
60243;SDS011;46106;51.468;5.814;2023-04-03T01:45:33;15.85;;;6.03;;
60243;SDS011;46106;51.468;5.814;2023-04-03T01:47:58;7.32;;;5.32;;
60243;SDS011;46106;51.468;5.814;2023-04-03T01:50:24;11.23;;;5.15;;
60243;SDS011;46106;51.468;5.814;2023-04-03T01:52:49;11.25;;;5.85;;
60243;SDS011;46106;51.468;5.814;2023-04-03T01:55:15;9.50;;;5.50;;
60243;SDS011;46106;51.468;5.814;2023-04-03T01:57:40;10.20;;;5.40;;
60243;SDS011;46106;51.468;5.814;2023-04-03T02:00:06;8.38;;;5.53;;
60243;SDS011;46106;51.468;5.814;2023-04-03T02:02:32;9.75;;;5.57;;
60243;SDS011;46106;51.468;5.814;2023-04-03T02:04:58;12.63;;;5.25;;
60243;SDS011;46106;51.468;5.814;2023-04-03T02:07:23;7.13;;;5.18;;
60243;SDS011;46106;51.468;5.814;2023-04-03T02:09:49;11.55;;;5.72;;
60243;SDS011;46106;51.468;5.814;2023-04-03T02:12:15;11.20;;;5.93;;
60243;SDS011;46106;51.468;5.814;2023-04-03T02:14:40;11.13;;;5.75;;
60243;SDS011;46106;51.468;5.814;2023-04-03T02:17:06;11.18;;;5.70;;
60243;SDS011;46106;51.468;5.814;2023-04-03T02:19:34;9.55;;;6.03;;
60243;SDS011;46106;51.468;5.814;2023-04-03T02:22:00;10.80;;;5.68;;
60243;SDS011;46106;51.468;5.814;2023-04-03T02:24:27;8.15;;;5.85;;
60243;SDS011;46106;51.468;5.814;2023-04-03T02:26:52;8.73;;;5.88;;
60243;SDS011;46106;51.468;5.814;2023-04-03T02:29:18;7.82;;;5.93;;
60243;SDS011;46106;51.468;5.814;2023-04-03T02:31:43;9.63;;;6.18;;
60243;SDS011;46106;51.468;5.814;2023-04-03T02:34:09;11.20;;;5.90;;
60243;SDS011;46106;51.468;5.814;2023-04-03T02:36:34;11.30;;;5.68;;
60243;SDS011;46106;51.468;5.814;2023-04-03T02:39:03;7.05;;;5.18;;
60243;SDS011;46106;51.468;5.814;2023-04-03T02:41:28;11.75;;;5.53;;
60243;SDS011;46106;51.468;5.814;2023-04-03T02:44:00;9.70;;;6.07;;
60243;SDS011;46106;51.468;5.814;2023-04-03T02:46:29;7.57;;;5.18;;
60243;SDS011;46106;51.468;5.814;2023-04-03T02:48:55;6.65;;;5.18;;
60243;SDS011;46106;51.468;5.814;2023-04-03T02:51:20;7.57;;;5.57;;
60243;SDS011;46106;51.468;5.814;2023-04-03T02:53:47;8.05;;;5.85;;
60243;SDS011;46106;51.468;5.814;2023-04-03T02:56:13;11.95;;;5.47;;
60243;SDS011;46106;51.468;5.814;2023-04-03T02:58:39;9.20;;;5.95;;
60243;SDS011;46106;51.468;5.814;2023-04-03T03:01:04;11.32;;;5.78;;
60243;SDS011;46106;51.468;5.814;2023-04-03T03:03:29;14.77;;;5.50;;
60243;SDS011;46106;51.468;5.814;2023-04-03T03:06:05;15.90;;;6.30;;
60243;SDS011;46106;51.468;5.814;2023-04-03T03:08:35;10.60;;;4.80;;
60243;SDS011;46106;51.468;5.814;2023-04-03T03:11:01;7.10;;;4.65;;
60243;SDS011;46106;51.468;5.814;2023-04-03T03:13:27;8.48;;;5.20;;
60243;SDS011;46106;51.468;5.814;2023-04-03T03:15:53;11.23;;;4.70;;
60243;SDS011;46106;51.468;5.814;2023-04-03T03:18:18;7.03;;;4.03;;
60243;SDS011;46106;51.468;5.814;2023-04-03T03:20:44;7.78;;;4.68;;
60243;SDS011;46106;51.468;5.814;2023-04-03T03:23:09;11.43;;;4.20;;
60243;SDS011;46106;51.468;5.814;2023-04-03T03:25:39;6.93;;;4.30;;
60243;SDS011;46106;51.468;5.814;2023-04-03T03:28:05;7.13;;;3.85;;
60243;SDS011;46106;51.468;5.814;2023-04-03T03:30:31;7.07;;;3.90;;
60243;SDS011;46106;51.468;5.814;2023-04-03T03:32:56;10.68;;;4.13;;
60243;SDS011;46106;51.468;5.814;2023-04-03T03:35:22;7.90;;;3.50;;
60243;SDS011;46106;51.468;5.814;2023-04-03T03:37:47;6.47;;;3.72;;
60243;SDS011;46106;51.468;5.814;2023-04-03T03:40:13;9.98;;;4.15;;
60243;SDS011;46106;51.468;5.814;2023-04-03T03:42:38;9.43;;;3.83;;
60243;SDS011;46106;51.468;5.814;2023-04-03T03:45:04;10.48;;;3.65;;
60243;SDS011;46106;51.468;5.814;2023-04-03T03:47:30;6.43;;;2.80;;
60243;SDS011;46106;51.468;5.814;2023-04-03T03:49:56;12.10;;;3.58;;
60243;SDS011;46106;51.468;5.814;2023-04-03T03:52:21;7.00;;;3.22;;
60243;SDS011;46106;51.468;5.814;2023-04-03T03:54:47;8.38;;;3.20;;
60243;SDS011;46106;51.468;5.814;2023-04-03T03:57:12;4.63;;;3.10;;
60243;SDS011;46106;51.468;5.814;2023-04-03T03:59:38;8.25;;;2.70;;
60243;SDS011;46106;51.468;5.814;2023-04-03T04:02:05;6.07;;;2.90;;
60243;SDS011;46106;51.468;5.814;2023-04-03T04:04:30;11.38;;;2.78;;
60243;SDS011;46106;51.468;5.814;2023-04-03T04:06:56;4.82;;;2.65;;
60243;SDS011;46106;51.468;5.814;2023-04-03T04:09:21;4.47;;;2.40;;
60243;SDS011;46106;51.468;5.814;2023-04-03T04:11:46;5.60;;;2.38;;
60243;SDS011;46106;51.468;5.814;2023-04-03T04:14:12;6.93;;;2.80;;
60243;SDS011;46106;51.468;5.814;2023-04-03T04:16:38;9.45;;;2.53;;
60243;SDS011;46106;51.468;5.814;2023-04-03T04:19:03;8.20;;;2.45;;
60243;SDS011;46106;51.468;5.814;2023-04-03T04:21:29;5.95;;;2.55;;
60243;SDS011;46106;51.468;5.814;2023-04-03T04:23:54;6.80;;;2.85;;
60243;SDS011;46106;51.468;5.814;2023-04-03T04:26:20;6.22;;;2.70;;
60243;SDS011;46106;51.468;5.814;2023-04-03T04:28:46;10.00;;;3.05;;
60243;SDS011;46106;51.468;5.814;2023-04-03T04:31:11;4.75;;;2.75;;
60243;SDS011;46106;51.468;5.814;2023-04-03T04:33:36;4.20;;;2.95;;
60243;SDS011;46106;51.468;5.814;2023-04-03T04:36:02;8.93;;;2.65;;
60243;SDS011;46106;51.468;5.814;2023-04-03T04:38:28;11.18;;;3.17;;
60243;SDS011;46106;51.468;5.814;2023-04-03T04:40:53;4.10;;;2.70;;
60243;SDS011;46106;51.468;5.814;2023-04-03T04:43:19;6.60;;;2.95;;
60243;SDS011;46106;51.468;5.814;2023-04-03T04:45:44;7.70;;;2.90;;
60243;SDS011;46106;51.468;5.814;2023-04-03T04:48:10;4.75;;;2.47;;
60243;SDS011;46106;51.468;5.814;2023-04-03T04:50:35;5.43;;;2.45;;
60243;SDS011;46106;51.468;5.814;2023-04-03T04:53:01;5.43;;;2.22;;
60243;SDS011;46106;51.468;5.814;2023-04-03T04:55:26;4.63;;;2.30;;
60243;SDS011;46106;51.468;5.814;2023-04-03T04:57:51;3.83;;;2.33;;
60243;SDS011;46106;51.468;5.814;2023-04-03T05:00:17;6.20;;;2.30;;
60243;SDS011;46106;51.468;5.814;2023-04-03T05:02:43;6.72;;;2.35;;
60243;SDS011;46106;51.468;5.814;2023-04-03T05:05:08;9.05;;;2.60;;
60243;SDS011;46106;51.468;5.814;2023-04-03T05:07:34;5.65;;;2.22;;
60243;SDS011;46106;51.468;5.814;2023-04-03T05:10:00;8.73;;;2.42;;
60243;SDS011;46106;51.468;5.814;2023-04-03T05:12:27;9.82;;;2.38;;
60243;SDS011;46106;51.468;5.814;2023-04-03T05:14:53;3.42;;;1.95;;
60243;SDS011;46106;51.468;5.814;2023-04-03T05:17:19;5.28;;;2.60;;
60243;SDS011;46106;51.468;5.814;2023-04-03T05:19:44;3.22;;;1.88;;
60243;SDS011;46106;51.468;5.814;2023-04-03T05:22:10;8.98;;;2.15;;
60243;SDS011;46106;51.468;5.814;2023-04-03T05:24:35;10.10;;;2.22;;
60243;SDS011;46106;51.468;5.814;2023-04-03T05:27:01;9.05;;;2.45;;
60243;SDS011;46106;51.468;5.814;2023-04-03T05:29:26;4.43;;;2.10;;
60243;SDS011;46106;51.468;5.814;2023-04-03T05:31:52;5.00;;;1.98;;
60243;SDS011;46106;51.468;5.814;2023-04-03T05:34:17;3.53;;;1.95;;
60243;SDS011;46106;51.468;5.814;2023-04-03T05:36:43;6.82;;;2.13;;
60243;SDS011;46106;51.468;5.814;2023-04-03T05:39:09;8.07;;;2.00;;
60243;SDS011;46106;51.468;5.814;2023-04-03T05:41:35;5.70;;;2.22;;
60243;SDS011;46106;51.468;5.814;2023-04-03T05:44:00;7.22;;;1.67;;
60243;SDS011;46106;51.468;5.814;2023-04-03T05:46:26;6.70;;;1.70;;
60243;SDS011;46106;51.468;5.814;2023-04-03T05:48:51;4.63;;;1.90;;
60243;SDS011;46106;51.468;5.814;2023-04-03T05:51:24;9.27;;;2.05;;
60243;SDS011;46106;51.468;5.814;2023-04-03T05:53:56;5.00;;;1.65;;
60243;SDS011;46106;51.468;5.814;2023-04-03T05:56:27;4.45;;;2.08;;
60243;SDS011;46106;51.468;5.814;2023-04-03T05:58:53;3.88;;;1.80;;
60243;SDS011;46106;51.468;5.814;2023-04-03T06:01:18;4.78;;;2.50;;
60243;SDS011;46106;51.468;5.814;2023-04-03T06:03:44;6.80;;;1.70;;
60243;SDS011;46106;51.468;5.814;2023-04-03T06:06:12;6.40;;;1.30;;
60243;SDS011;46106;51.468;5.814;2023-04-03T06:08:39;4.07;;;1.42;;
60243;SDS011;46106;51.468;5.814;2023-04-03T06:11:04;3.55;;;1.60;;
60243;SDS011;46106;51.468;5.814;2023-04-03T06:13:30;5.15;;;1.85;;
60243;SDS011;46106;51.468;5.814;2023-04-03T06:15:56;6.38;;;1.42;;
60243;SDS011;46106;51.468;5.814;2023-04-03T06:18:22;5.53;;;1.85;;
60243;SDS011;46106;51.468;5.814;2023-04-03T06:20:47;4.45;;;1.50;;
60243;SDS011;46106;51.468;5.814;2023-04-03T06:23:13;3.80;;;1.60;;
60243;SDS011;46106;51.468;5.814;2023-04-03T06:25:38;10.70;;;1.85;;
60243;SDS011;46106;51.468;5.814;2023-04-03T06:28:03;5.80;;;2.03;;
60243;SDS011;46106;51.468;5.814;2023-04-03T06:30:29;5.93;;;1.45;;
60243;SDS011;46106;51.468;5.814;2023-04-03T06:32:55;11.27;;;1.60;;
60243;SDS011;46106;51.468;5.814;2023-04-03T06:35:20;4.65;;;1.38;;
60243;SDS011;46106;51.468;5.814;2023-04-03T06:37:48;7.28;;;1.75;;
60243;SDS011;46106;51.468;5.814;2023-04-03T06:40:18;5.18;;;1.70;;
60243;SDS011;46106;51.468;5.814;2023-04-03T06:42:47;7.07;;;1.27;;
60243;SDS011;46106;51.468;5.814;2023-04-03T06:45:12;2.47;;;1.33;;
60243;SDS011;46106;51.468;5.814;2023-04-03T06:47:38;5.55;;;1.45;;
60243;SDS011;46106;51.468;5.814;2023-04-03T06:50:04;6.47;;;1.90;;
60243;SDS011;46106;51.468;5.814;2023-04-03T06:52:31;9.02;;;1.42;;
60243;SDS011;46106;51.468;5.814;2023-04-03T06:54:57;8.30;;;1.40;;
60243;SDS011;46106;51.468;5.814;2023-04-03T06:57:24;6.13;;;1.60;;
60243;SDS011;46106;51.468;5.814;2023-04-03T06:59:50;3.35;;;1.45;;
60243;SDS011;46106;51.468;5.814;2023-04-03T07:02:16;4.93;;;1.58;;
60243;SDS011;46106;51.468;5.814;2023-04-03T07:04:42;3.90;;;1.48;;
60243;SDS011;46106;51.468;5.814;2023-04-03T07:07:07;5.57;;;1.65;;
60243;SDS011;46106;51.468;5.814;2023-04-03T07:09:33;7.18;;;1.73;;
60243;SDS011;46106;51.468;5.814;2023-04-03T07:11:58;6.40;;;1.73;;
60243;SDS011;46106;51.468;5.814;2023-04-03T07:14:24;4.85;;;1.33;;
60243;SDS011;46106;51.468;5.814;2023-04-03T07:16:50;4.75;;;1.23;;
60243;SDS011;46106;51.468;5.814;2023-04-03T07:19:15;5.95;;;2.15;;
60243;SDS011;46106;51.468;5.814;2023-04-03T07:21:43;7.40;;;1.58;;
60243;SDS011;46106;51.468;5.814;2023-04-03T07:24:08;4.70;;;1.35;;
60243;SDS011;46106;51.468;5.814;2023-04-03T07:26:34;8.23;;;1.60;;
60243;SDS011;46106;51.468;5.814;2023-04-03T07:29:03;9.05;;;1.50;;
60243;SDS011;46106;51.468;5.814;2023-04-03T07:31:28;6.85;;;1.55;;
60243;SDS011;46106;51.468;5.814;2023-04-03T07:33:54;8.65;;;1.70;;
60243;SDS011;46106;51.468;5.814;2023-04-03T07:36:21;8.20;;;1.67;;
60243;SDS011;46106;51.468;5.814;2023-04-03T07:38:48;4.25;;;1.50;;
60243;SDS011;46106;51.468;5.814;2023-04-03T07:41:14;7.75;;;1.40;;
60243;SDS011;46106;51.468;5.814;2023-04-03T07:43:40;12.27;;;1.52;;
60243;SDS011;46106;51.468;5.814;2023-04-03T07:46:10;9.63;;;1.35;;
60243;SDS011;46106;51.468;5.814;2023-04-03T07:48:37;4.75;;;1.40;;
60243;SDS011;46106;51.468;5.814;2023-04-03T07:51:02;3.97;;;1.45;;
60243;SDS011;46106;51.468;5.814;2023-04-03T07:53:29;6.93;;;1.42;;
60243;SDS011;46106;51.468;5.814;2023-04-03T07:55:56;8.27;;;1.52;;
60243;SDS011;46106;51.468;5.814;2023-04-03T07:58:22;4.30;;;1.10;;
60243;SDS011;46106;51.468;5.814;2023-04-03T08:00:48;3.30;;;1.20;;
60243;SDS011;46106;51.468;5.814;2023-04-03T08:03:13;5.05;;;1.15;;
60243;SDS011;46106;51.468;5.814;2023-04-03T08:05:41;4.13;;;1.00;;
60243;SDS011;46106;51.468;5.814;2023-04-03T08:08:09;5.03;;;1.58;;
60243;SDS011;46106;51.468;5.814;2023-04-03T08:10:39;6.78;;;1.38;;
60243;SDS011;46106;51.468;5.814;2023-04-03T08:13:05;4.93;;;1.30;;
60243;SDS011;46106;51.468;5.814;2023-04-03T08:15:31;6.25;;;1.38;;
60243;SDS011;46106;51.468;5.814;2023-04-03T08:17:57;3.05;;;1.02;;
60243;SDS011;46106;51.468;5.814;2023-04-03T08:20:23;3.92;;;0.90;;
60243;SDS011;46106;51.468;5.814;2023-04-03T08:22:49;5.68;;;1.48;;
60243;SDS011;46106;51.468;5.814;2023-04-03T08:25:15;4.28;;;1.05;;
60243;SDS011;46106;51.468;5.814;2023-04-03T08:27:42;5.80;;;1.65;;
60243;SDS011;46106;51.468;5.814;2023-04-03T08:30:07;5.43;;;1.00;;
60243;SDS011;46106;51.468;5.814;2023-04-03T08:32:34;3.88;;;0.93;;
60243;SDS011;46106;51.468;5.814;2023-04-03T08:35:00;2.20;;;0.80;;
60243;SDS011;46106;51.468;5.814;2023-04-03T08:37:26;6.15;;;1.30;;
60243;SDS011;46106;51.468;5.814;2023-04-03T08:39:52;5.32;;;1.17;;
60243;SDS011;46106;51.468;5.814;2023-04-03T08:45:01;5.97;;;1.20;;
60243;SDS011;46106;51.468;5.814;2023-04-03T08:50:19;1.48;;;0.70;;
60243;SDS011;46106;51.468;5.814;2023-04-03T08:52:50;2.90;;;1.10;;
60243;SDS011;46106;51.468;5.814;2023-04-03T08:58:06;2.67;;;0.90;;
60243;SDS011;46106;51.468;5.814;2023-04-03T09:00:53;5.78;;;1.10;;
60243;SDS011;46106;51.468;5.814;2023-04-03T09:03:23;3.08;;;1.02;;
60243;SDS011;46106;51.468;5.814;2023-04-03T09:05:53;6.25;;;0.80;;
60243;SDS011;46106;51.468;5.814;2023-04-03T09:08:31;4.78;;;0.90;;
60243;SDS011;46106;51.468;5.814;2023-04-03T09:13:39;1.98;;;0.80;;
60243;SDS011;46106;51.468;5.814;2023-04-03T09:19:15;1.58;;;0.85;;
60243;SDS011;46106;51.468;5.814;2023-04-03T09:25:10;2.83;;;0.93;;
60243;SDS011;46106;51.468;5.814;2023-04-03T09:27:40;2.42;;;0.70;;
60243;SDS011;46106;51.468;5.814;2023-04-03T09:30:11;7.20;;;1.00;;
60243;SDS011;46106;51.468;5.814;2023-04-03T09:32:44;3.70;;;0.77;;
60243;SDS011;46106;51.468;5.814;2023-04-03T09:35:15;5.45;;;0.70;;
60243;SDS011;46106;51.468;5.814;2023-04-03T09:37:45;1.98;;;0.80;;
60243;SDS011;46106;51.468;5.814;2023-04-03T09:42:50;1.02;;;0.60;;
60243;SDS011;46106;51.468;5.814;2023-04-03T09:45:25;4.18;;;0.70;;
60243;SDS011;46106;51.468;5.814;2023-04-03T09:48:07;1.17;;;0.70;;
60243;SDS011;46106;51.468;5.814;2023-04-03T09:51:00;2.30;;;0.68;;
60243;SDS011;46106;51.468;5.814;2023-04-03T09:53:41;0.77;;;0.65;;
60243;SDS011;46106;51.468;5.814;2023-04-03T10:04:03;2.00;;;0.57;;
60243;SDS011;46106;51.468;5.814;2023-04-03T10:06:32;1.23;;;0.57;;
60243;SDS011;46106;51.468;5.814;2023-04-03T10:09:04;1.08;;;0.40;;
60243;SDS011;46106;51.468;5.814;2023-04-03T10:11:31;0.98;;;0.50;;
60243;SDS011;46106;51.468;5.814;2023-04-03T10:13:58;1.27;;;0.60;;
60243;SDS011;46106;51.468;5.814;2023-04-03T10:24:54;1.67;;;0.57;;
60243;SDS011;46106;51.468;5.814;2023-04-03T10:32:58;4.47;;;0.50;;
60243;SDS011;46106;51.468;5.814;2023-04-03T10:41:12;1.92;;;0.57;;
60243;SDS011;46106;51.468;5.814;2023-04-03T10:46:26;2.03;;;0.60;;
60243;SDS011;46106;51.468;5.814;2023-04-03T10:54:17;2.03;;;0.52;;
60243;SDS011;46106;51.468;5.814;2023-04-03T10:56:57;5.47;;;0.55;;
60243;SDS011;46106;51.468;5.814;2023-04-03T10:59:32;2.03;;;0.77;;
60243;SDS011;46106;51.468;5.814;2023-04-03T11:02:07;1.48;;;0.50;;
60243;SDS011;46106;51.468;5.814;2023-04-03T11:04:40;1.08;;;0.50;;
60243;SDS011;46106;51.468;5.814;2023-04-03T11:07:10;2.15;;;0.60;;
60243;SDS011;46106;51.468;5.814;2023-04-03T11:12:12;1.13;;;0.50;;
60243;SDS011;46106;51.468;5.814;2023-04-03T11:14:42;2.25;;;0.52;;
60243;SDS011;46106;51.468;5.814;2023-04-03T11:22:40;2.22;;;0.70;;
60243;SDS011;46106;51.468;5.814;2023-04-03T11:27:55;3.03;;;0.60;;
60243;SDS011;46106;51.468;5.814;2023-04-03T11:35:44;1.88;;;0.82;;
60243;SDS011;46106;51.468;5.814;2023-04-03T11:38:17;2.03;;;0.60;;
60243;SDS011;46106;51.468;5.814;2023-04-03T11:40:48;1.60;;;0.70;;
60243;SDS011;46106;51.468;5.814;2023-04-03T11:45:59;2.65;;;0.65;;
60243;SDS011;46106;51.468;5.814;2023-04-03T11:51:46;2.78;;;0.70;;
60243;SDS011;46106;51.468;5.814;2023-04-03T11:53:53;6.53;;;0.70;;
60243;SDS011;46106;51.468;5.814;2023-04-03T12:01:54;4.05;;;0.70;;
60243;SDS011;46106;51.468;5.814;2023-04-03T12:04:22;1.17;;;0.60;;
60243;SDS011;46106;51.468;5.814;2023-04-03T12:06:59;2.30;;;0.80;;
60243;SDS011;46106;51.468;5.814;2023-04-03T12:15:11;1.50;;;0.57;;
60243;SDS011;46106;51.468;5.814;2023-04-03T12:17:43;3.60;;;1.10;;
60243;SDS011;46106;51.468;5.814;2023-04-03T12:26:30;3.95;;;0.73;;
60243;SDS011;46106;51.468;5.814;2023-04-03T12:29:15;2.90;;;0.80;;
60243;SDS011;46106;51.468;5.814;2023-04-03T12:40:23;2.33;;;0.60;;
60243;SDS011;46106;51.468;5.814;2023-04-03T12:48:39;5.05;;;0.80;;
60243;SDS011;46106;51.468;5.814;2023-04-03T12:54:01;1.10;;;0.60;;
60243;SDS011;46106;51.468;5.814;2023-04-03T12:56:34;5.57;;;0.80;;
60243;SDS011;46106;51.468;5.814;2023-04-03T12:59:21;4.85;;;1.00;;
60243;SDS011;46106;51.468;5.814;2023-04-03T13:01:58;2.33;;;0.80;;
60243;SDS011;46106;51.468;5.814;2023-04-03T13:04:28;1.73;;;0.90;;
60243;SDS011;46106;51.468;5.814;2023-04-03T13:06:55;5.05;;;1.05;;
60243;SDS011;46106;51.468;5.814;2023-04-03T13:09:22;1.45;;;0.85;;
60243;SDS011;46106;51.468;5.814;2023-04-03T13:11:56;3.90;;;0.95;;
60243;SDS011;46106;51.468;5.814;2023-04-03T13:14:26;6.43;;;1.00;;
60243;SDS011;46106;51.468;5.814;2023-04-03T13:19:29;3.72;;;0.82;;
60243;SDS011;46106;51.468;5.814;2023-04-03T13:22:05;2.80;;;0.80;;
60243;SDS011;46106;51.468;5.814;2023-04-03T13:24:40;5.38;;;0.95;;
60243;SDS011;46106;51.468;5.814;2023-04-03T13:27:10;2.25;;;0.90;;
60243;SDS011;46106;51.468;5.814;2023-04-03T13:29:37;3.30;;;1.05;;
60243;SDS011;46106;51.468;5.814;2023-04-03T13:32:05;5.90;;;1.27;;
60243;SDS011;46106;51.468;5.814;2023-04-03T13:34:38;1.92;;;1.02;;
60243;SDS011;46106;51.468;5.814;2023-04-03T13:37:30;1.02;;;0.70;;
60243;SDS011;46106;51.468;5.814;2023-04-03T13:40:09;4.05;;;0.95;;
60243;SDS011;46106;51.468;5.814;2023-04-03T13:42:39;4.25;;;1.30;;
60243;SDS011;46106;51.468;5.814;2023-04-03T13:45:25;5.72;;;1.10;;
60243;SDS011;46106;51.468;5.814;2023-04-03T13:48:09;2.65;;;1.13;;
60243;SDS011;46106;51.468;5.814;2023-04-03T13:50:51;2.25;;;1.00;;
60243;SDS011;46106;51.468;5.814;2023-04-03T13:53:20;4.97;;;1.00;;
60243;SDS011;46106;51.468;5.814;2023-04-03T13:56:00;5.25;;;0.80;;
60243;SDS011;46106;51.468;5.814;2023-04-03T13:58:32;1.48;;;0.80;;
60243;SDS011;46106;51.468;5.814;2023-04-03T14:01:09;5.57;;;1.00;;
60243;SDS011;46106;51.468;5.814;2023-04-03T14:03:55;4.35;;;1.10;;
60243;SDS011;46106;51.468;5.814;2023-04-03T14:06:22;4.03;;;0.98;;
60243;SDS011;46106;51.468;5.814;2023-04-03T14:08:49;5.63;;;1.00;;
60243;SDS011;46106;51.468;5.814;2023-04-03T14:11:16;3.08;;;0.90;;
60243;SDS011;46106;51.468;5.814;2023-04-03T14:13:46;6.32;;;1.60;;
60243;SDS011;46106;51.468;5.814;2023-04-03T14:16:13;2.65;;;1.20;;
60243;SDS011;46106;51.468;5.814;2023-04-03T14:18:42;2.13;;;0.82;;
60243;SDS011;46106;51.468;5.814;2023-04-03T14:21:12;3.60;;;0.80;;
60243;SDS011;46106;51.468;5.814;2023-04-03T14:23:39;3.60;;;1.27;;
60243;SDS011;46106;51.468;5.814;2023-04-03T14:26:10;2.20;;;0.93;;
60243;SDS011;46106;51.468;5.814;2023-04-03T14:28:38;1.80;;;0.90;;
60243;SDS011;46106;51.468;5.814;2023-04-03T14:31:05;9.73;;;1.73;;
60243;SDS011;46106;51.468;5.814;2023-04-03T14:33:32;8.07;;;1.20;;
60243;SDS011;46106;51.468;5.814;2023-04-03T14:36:00;3.45;;;1.08;;
60243;SDS011;46106;51.468;5.814;2023-04-03T14:38:28;3.28;;;1.25;;
60243;SDS011;46106;51.468;5.814;2023-04-03T14:40:55;4.75;;;1.08;;
60243;SDS011;46106;51.468;5.814;2023-04-03T14:43:22;4.05;;;1.30;;
60243;SDS011;46106;51.468;5.814;2023-04-03T14:45:48;5.40;;;1.40;;
60243;SDS011;46106;51.468;5.814;2023-04-03T14:48:18;5.40;;;1.08;;
60243;SDS011;46106;51.468;5.814;2023-04-03T14:50:49;4.15;;;1.30;;
60243;SDS011;46106;51.468;5.814;2023-04-03T14:53:16;3.42;;;1.08;;
60243;SDS011;46106;51.468;5.814;2023-04-03T14:55:46;2.47;;;0.90;;
60243;SDS011;46106;51.468;5.814;2023-04-03T14:58:16;2.30;;;0.90;;
60243;SDS011;46106;51.468;5.814;2023-04-03T15:00:44;1.92;;;1.00;;
60243;SDS011;46106;51.468;5.814;2023-04-03T15:03:18;2.65;;;1.05;;
60243;SDS011;46106;51.468;5.814;2023-04-03T15:05:46;5.45;;;1.80;;
60243;SDS011;46106;51.468;5.814;2023-04-03T15:08:16;8.88;;;1.30;;
60243;SDS011;46106;51.468;5.814;2023-04-03T15:10:44;4.80;;;1.27;;
60243;SDS011;46106;51.468;5.814;2023-04-03T15:13:10;2.08;;;0.95;;
60243;SDS011;46106;51.468;5.814;2023-04-03T15:15:37;5.00;;;0.90;;
60243;SDS011;46106;51.468;5.814;2023-04-03T15:18:04;1.55;;;0.75;;
60243;SDS011;46106;51.468;5.814;2023-04-03T15:20:30;3.05;;;0.93;;
60243;SDS011;46106;51.468;5.814;2023-04-03T15:22:58;6.93;;;0.93;;
60243;SDS011;46106;51.468;5.814;2023-04-03T15:25:27;7.53;;;0.80;;
60243;SDS011;46106;51.468;5.814;2023-04-03T15:27:54;4.40;;;1.10;;
60243;SDS011;46106;51.468;5.814;2023-04-03T15:30:21;1.92;;;1.00;;
60243;SDS011;46106;51.468;5.814;2023-04-03T15:32:46;3.85;;;0.90;;
60243;SDS011;46106;51.468;5.814;2023-04-03T15:35:12;10.63;;;1.20;;
60243;SDS011;46106;51.468;5.814;2023-04-03T15:37:38;7.72;;;0.85;;
60243;SDS011;46106;51.468;5.814;2023-04-03T15:40:04;2.90;;;0.98;;
60243;SDS011;46106;51.468;5.814;2023-04-03T15:42:31;4.93;;;1.25;;
60243;SDS011;46106;51.468;5.814;2023-04-03T15:44:56;1.75;;;1.00;;
60243;SDS011;46106;51.468;5.814;2023-04-03T15:47:22;3.22;;;1.05;;
60243;SDS011;46106;51.468;5.814;2023-04-03T15:49:49;3.13;;;0.90;;
60243;SDS011;46106;51.468;5.814;2023-04-03T15:52:14;3.45;;;1.17;;
60243;SDS011;46106;51.468;5.814;2023-04-03T15:54:40;7.47;;;1.33;;
60243;SDS011;46106;51.468;5.814;2023-04-03T15:57:05;2.75;;;1.10;;
60243;SDS011;46106;51.468;5.814;2023-04-03T15:59:30;5.80;;;1.05;;
60243;SDS011;46106;51.468;5.814;2023-04-03T16:01:57;4.75;;;1.17;;
60243;SDS011;46106;51.468;5.814;2023-04-03T16:04:25;3.97;;;0.93;;
60243;SDS011;46106;51.468;5.814;2023-04-03T16:06:51;1.70;;;0.90;;
60243;SDS011;46106;51.468;5.814;2023-04-03T16:09:17;3.75;;;1.02;;
60243;SDS011;46106;51.468;5.814;2023-04-03T16:11:43;2.78;;;0.93;;
60243;SDS011;46106;51.468;5.814;2023-04-03T16:14:08;3.85;;;1.08;;
60243;SDS011;46106;51.468;5.814;2023-04-03T16:16:34;2.35;;;0.90;;
60243;SDS011;46106;51.468;5.814;2023-04-03T16:19:01;2.30;;;0.82;;
60243;SDS011;46106;51.468;5.814;2023-04-03T16:21:27;4.43;;;1.35;;
60243;SDS011;46106;51.468;5.814;2023-04-03T16:23:55;5.53;;;1.10;;
60243;SDS011;46106;51.468;5.814;2023-04-03T16:26:22;3.55;;;1.05;;
60243;SDS011;46106;51.468;5.814;2023-04-03T16:28:47;3.17;;;1.10;;
60243;SDS011;46106;51.468;5.814;2023-04-03T16:31:13;3.35;;;1.00;;
60243;SDS011;46106;51.468;5.814;2023-04-03T16:33:38;2.38;;;0.95;;
60243;SDS011;46106;51.468;5.814;2023-04-03T16:36:04;3.50;;;0.93;;
60243;SDS011;46106;51.468;5.814;2023-04-03T16:38:30;5.25;;;1.10;;
60243;SDS011;46106;51.468;5.814;2023-04-03T16:40:56;2.92;;;1.02;;
60243;SDS011;46106;51.468;5.814;2023-04-03T16:43:30;5.00;;;1.10;;
60243;SDS011;46106;51.468;5.814;2023-04-03T16:45:56;2.08;;;0.82;;
60243;SDS011;46106;51.468;5.814;2023-04-03T16:48:22;6.05;;;1.10;;